Time;durP1;ratioP1;P1;durP2;ratioP2;P2;SDS_P1;SDS_P2;PMS_P1;PMS_P2;Temp;Humidity;BMP_temperature;BMP_pressure;BME280_temperature;BME280_humidity;BME280_pressure;Samples;Min_cycle;Max_cycle;Signal;HPM_P1;HPM_P2
2023/08/21 00:00:20;;;;;;;12.93;8.37;;;23.40;99.90;;;;;;5017754;28;20540;-60
2023/08/21 00:02:47;;;;;;;10.30;8.27;;;23.30;99.90;;;;;;5017419;28;20469;-62
2023/08/21 00:05:13;;;;;;;10.60;8.33;;;23.30;99.90;;;;;;5024031;28;20516;-62
2023/08/21 00:07:40;;;;;;;12.67;8.93;;;23.30;99.90;;;;;;5024169;28;20868;-62
2023/08/21 00:10:09;;;;;;;11.70;9.40;;;23.30;99.90;;;;;;5025213;28;20945;-60
2023/08/21 00:12:36;;;;;;;9.77;8.10;;;23.20;99.90;;;;;;5019091;28;20473;-62
2023/08/21 00:15:04;;;;;;;11.80;9.13;;;23.20;99.90;;;;;;5017771;28;20452;-58
2023/08/21 00:17:32;;;;;;;9.67;8.70;;;23.20;99.90;;;;;;5017788;28;20536;-62
2023/08/21 00:19:59;;;;;;;13.13;9.73;;;23.20;99.90;;;;;;5022216;28;20453;-62
2023/08/21 00:22:26;;;;;;;9.10;8.13;;;23.10;99.90;;;;;;5027427;28;20966;-61
2023/08/21 00:24:53;;;;;;;12.33;8.93;;;23.10;99.90;;;;;;5028185;28;20994;-61
2023/08/21 00:27:20;;;;;;;10.70;8.80;;;23.10;99.90;;;;;;5028941;28;20481;-62
2023/08/21 00:29:46;;;;;;;10.63;7.17;;;23.00;99.90;;;;;;5026125;28;20492;-62
2023/08/21 00:32:13;;;;;;;13.30;9.57;;;23.00;99.90;;;;;;5025412;28;20451;-62
2023/08/21 00:34:42;;;;;;;11.50;8.77;;;23.00;99.90;;;;;;5025409;28;20483;-60
2023/08/21 00:37:08;;;;;;;11.40;8.30;;;22.90;99.90;;;;;;5025672;28;20449;-61
2023/08/21 00:39:35;;;;;;;14.60;9.77;;;22.90;99.90;;;;;;5025749;28;20457;-61
2023/08/21 00:42:02;;;;;;;10.27;8.20;;;22.90;99.90;;;;;;5025938;28;20438;-62
2023/08/21 00:44:29;;;;;;;11.10;7.73;;;22.90;99.90;;;;;;5024901;28;20544;-61
2023/08/21 00:46:56;;;;;;;10.97;9.40;;;22.90;99.90;;;;;;5024781;28;20492;-62
2023/08/21 00:49:25;;;;;;;10.23;7.47;;;22.90;99.90;;;;;;5025182;28;20449;-61
2023/08/21 00:51:54;;;;;;;10.00;8.10;;;22.90;99.90;;;;;;5025414;28;21012;-59
2023/08/21 00:54:21;;;;;;;8.67;7.57;;;22.80;99.90;;;;;;5024178;28;20476;-61
2023/08/21 00:56:48;;;;;;;11.10;9.47;;;22.80;99.90;;;;;;5024293;28;20449;-62
2023/08/21 00:59:15;;;;;;;11.93;8.60;;;22.80;99.90;;;;;;5024584;28;20436;-62
2023/08/21 01:01:42;;;;;;;11.43;9.37;;;22.80;99.90;;;;;;5024761;28;20453;-62
2023/08/21 01:04:09;;;;;;;11.97;9.43;;;22.70;99.90;;;;;;5025154;28;20456;-64
2023/08/21 01:06:38;;;;;;;9.80;8.50;;;22.70;99.90;;;;;;5026374;28;20510;-61
2023/08/21 01:09:15;;;;;;;10.47;8.50;;;22.70;99.90;;;;;;5026049;28;20476;-62
2023/08/21 01:11:51;;;;;;;10.57;7.77;;;22.70;99.90;;;;;;5017761;28;20457;-62
2023/08/21 01:14:28;;;;;;;9.80;8.87;;;22.70;99.90;;;;;;5022249;28;20472;-62
2023/08/21 01:17:00;;;;;;;9.30;8.30;;;22.70;99.90;;;;;;5025452;28;20421;-62
2023/08/21 01:19:32;;;;;;;9.90;8.33;;;22.80;99.90;;;;;;5025097;28;20461;-62
2023/08/21 01:22:00;;;;;;;11.20;9.97;;;22.80;99.90;;;;;;5017655;28;20440;-62
2023/08/21 01:24:28;;;;;;;13.47;8.30;;;22.80;99.90;;;;;;5018573;28;20449;-63
2023/08/21 01:26:55;;;;;;;10.53;8.73;;;22.90;99.90;;;;;;5025499;28;20532;-62
2023/08/21 01:29:22;;;;;;;9.87;7.57;;;22.90;99.90;;;;;;5026153;28;20444;-63
2023/08/21 01:31:55;;;;;;;8.60;7.13;;;22.90;99.90;;;;;;5025343;28;20465;-62
2023/08/21 01:34:23;;;;;;;9.73;8.47;;;22.90;99.90;;;;;;5025355;28;20453;-62
2023/08/21 01:36:50;;;;;;;17.63;9.13;;;22.90;99.90;;;;;;5025547;28;20492;-62
2023/08/21 01:39:17;;;;;;;9.20;7.23;;;23.00;99.90;;;;;;5025222;28;20445;-62
2023/08/21 01:41:48;;;;;;;9.33;8.03;;;23.00;99.90;;;;;;5024618;28;20943;-62
2023/08/21 01:44:15;;;;;;;14.07;8.37;;;23.00;99.90;;;;;;5026464;28;20782;-62
2023/08/21 01:46:41;;;;;;;13.90;8.60;;;23.00;99.90;;;;;;5015577;28;20487;-64
2023/08/21 01:49:08;;;;;;;9.03;8.13;;;22.90;99.90;;;;;;5015249;28;20520;-64
2023/08/21 01:51:35;;;;;;;11.03;7.93;;;22.90;99.90;;;;;;5015745;28;20477;-62
2023/08/21 01:54:02;;;;;;;16.77;9.27;;;22.90;99.90;;;;;;5022874;28;20778;-62
2023/08/21 01:56:29;;;;;;;11.87;10.60;;;22.90;99.90;;;;;;5024547;28;20504;-62
2023/08/21 01:58:57;;;;;;;11.90;8.30;;;22.90;99.90;;;;;;5022700;28;20531;-62
2023/08/21 02:01:24;;;;;;;11.20;9.07;;;23.00;99.90;;;;;;5021531;28;20536;-63
2023/08/21 02:03:51;;;;;;;11.37;7.83;;;23.00;99.90;;;;;;5025775;28;20445;-62
2023/08/21 02:06:20;;;;;;;15.13;8.53;;;22.90;99.90;;;;;;5025070;28;20552;-63
2023/08/21 02:08:47;;;;;;;12.13;7.80;;;23.00;99.90;;;;;;5024980;28;20463;-62
2023/08/21 02:11:14;;;;;;;16.23;9.30;;;23.00;99.90;;;;;;5025307;28;20441;-62
2023/08/21 02:13:40;;;;;;;13.27;8.90;;;23.00;99.90;;;;;;5025063;28;20456;-61
2023/08/21 02:16:09;;;;;;;9.93;8.27;;;23.00;99.90;;;;;;5025264;28;20441;-63
2023/08/21 02:18:35;;;;;;;11.90;9.30;;;23.00;99.90;;;;;;5024495;28;20817;-63
2023/08/21 02:21:03;;;;;;;8.67;7.60;;;23.00;99.90;;;;;;5025606;28;20904;-62
2023/08/21 02:23:29;;;;;;;10.00;8.07;;;23.00;99.90;;;;;;5025053;28;20468;-63
2023/08/21 02:25:56;;;;;;;11.13;8.07;;;23.00;99.90;;;;;;5025325;28;20481;-63
2023/08/21 02:28:23;;;;;;;10.10;7.57;;;23.00;99.90;;;;;;5024740;28;20465;-61
2023/08/21 02:30:50;;;;;;;9.40;8.50;;;23.00;99.90;;;;;;5025309;28;20469;-64
2023/08/21 02:33:18;;;;;;;10.00;8.07;;;23.00;99.90;;;;;;5024480;28;20477;-63
2023/08/21 02:35:45;;;;;;;10.23;8.00;;;23.00;99.90;;;;;;5016719;28;20473;-63
2023/08/21 02:38:12;;;;;;;11.93;8.20;;;23.00;99.90;;;;;;5020930;28;20503;-62
2023/08/21 02:40:39;;;;;;;13.53;8.87;;;22.90;99.90;;;;;;5024141;28;20441;-61
2023/08/21 02:43:06;;;;;;;12.67;7.50;;;22.90;99.90;;;;;;5025221;28;20504;-62
2023/08/21 02:45:33;;;;;;;9.50;7.83;;;22.90;99.90;;;;;;5023367;28;20999;-63
2023/08/21 02:48:00;;;;;;;12.80;8.17;;;22.90;99.90;;;;;;5024055;28;20848;-62
2023/08/21 02:50:28;;;;;;;13.60;8.70;;;22.90;99.90;;;;;;5023565;28;20480;-62
2023/08/21 02:52:56;;;;;;;9.57;7.50;;;22.90;99.90;;;;;;5026808;28;20489;-60
2023/08/21 02:55:23;;;;;;;9.70;7.73;;;23.00;99.90;;;;;;5037202;28;20440;-60
2023/08/21 02:57:49;;;;;;;11.07;7.63;;;23.00;99.90;;;;;;5037475;28;20468;-60
2023/08/21 03:00:17;;;;;;;9.47;7.70;;;22.90;99.90;;;;;;5036982;28;20444;-60
2023/08/21 03:02:47;;;;;;;9.73;7.80;;;22.90;99.90;;;;;;5037482;28;20445;-62
2023/08/21 03:05:15;;;;;;;10.13;8.30;;;23.00;99.90;;;;;;5037260;28;20465;-60
2023/08/21 03:07:44;;;;;;;9.33;7.63;;;22.90;99.90;;;;;;5036715;28;20451;-62
2023/08/21 03:10:14;;;;;;;12.63;8.13;;;22.90;99.90;;;;;;5037704;28;20429;-61
2023/08/21 03:12:41;;;;;;;8.40;7.27;;;22.90;99.90;;;;;;5037327;28;20448;-62
2023/08/21 03:15:08;;;;;;;11.60;8.00;;;22.90;99.90;;;;;;5036767;28;20473;-61
2023/08/21 03:17:37;;;;;;;10.90;7.97;;;22.90;99.90;;;;;;5036976;28;20441;-62
2023/08/21 03:20:05;;;;;;;9.00;7.27;;;23.00;99.90;;;;;;5027186;28;20459;-63
2023/08/21 03:22:32;;;;;;;9.70;6.73;;;23.00;99.90;;;;;;5020734;28;20509;-62
2023/08/21 03:25:00;;;;;;;12.63;8.13;;;23.00;99.90;;;;;;5024821;28;20520;-63
2023/08/21 03:27:27;;;;;;;7.83;7.07;;;23.00;99.90;;;;;;5027329;28;20481;-62
2023/08/21 03:29:54;;;;;;;9.07;6.80;;;22.90;99.90;;;;;;5027733;28;20441;-62
2023/08/21 03:32:21;;;;;;;12.40;8.17;;;23.00;99.90;;;;;;5028397;28;20449;-64
2023/08/21 03:34:48;;;;;;;8.10;6.77;;;23.00;99.90;;;;;;5027475;28;20460;-61
2023/08/21 03:37:15;;;;;;;11.83;6.40;;;22.90;99.90;;;;;;5027451;28;20456;-63
2023/08/21 03:39:42;;;;;;;8.40;6.70;;;22.90;99.90;;;;;;5027451;28;20507;-63
2023/08/21 03:42:10;;;;;;;8.67;6.87;;;22.90;99.90;;;;;;5028088;28;20445;-61
2023/08/21 03:44:40;;;;;;;13.60;7.53;;;22.90;99.90;;;;;;5028913;28;20488;-62
2023/08/21 03:47:07;;;;;;;11.07;6.60;;;22.90;99.90;;;;;;5017686;28;20547;-62
2023/08/21 03:49:34;;;;;;;10.07;8.20;;;22.90;99.90;;;;;;5025004;28;20464;-63
2023/08/21 03:52:01;;;;;;;8.93;7.50;;;22.90;99.90;;;;;;5028297;28;20468;-63
2023/08/21 03:54:30;;;;;;;10.20;6.60;;;22.90;99.90;;;;;;5018450;28;20465;-62
2023/08/21 03:56:56;;;;;;;8.50;7.53;;;22.90;99.90;;;;;;5027074;28;20472;-62
2023/08/21 03:59:27;;;;;;;9.90;8.10;;;22.90;99.90;;;;;;5027699;28;20485;-62
2023/08/21 04:01:54;;;;;;;8.03;6.27;;;22.90;99.90;;;;;;5020362;28;20561;-62
2023/08/21 04:04:20;;;;;;;8.03;7.23;;;22.90;99.90;;;;;;5016587;28;20556;-62
2023/08/21 04:06:50;;;;;;;9.53;7.73;;;22.90;99.90;;;;;;5024252;28;20512;-61
2023/08/21 04:09:17;;;;;;;8.90;7.00;;;22.90;99.90;;;;;;5016969;28;20492;-63
2023/08/21 04:11:44;;;;;;;10.43;6.50;;;22.90;99.90;;;;;;5020641;28;20484;-62
2023/08/21 04:14:11;;;;;;;10.37;7.80;;;22.90;99.90;;;;;;5026435;28;20529;-62
2023/08/21 04:16:42;;;;;;;7.77;6.97;;;22.90;99.90;;;;;;5026417;28;20571;-61
2023/08/21 04:19:08;;;;;;;8.50;7.70;;;22.90;99.90;;;;;;5027192;28;20493;-62
2023/08/21 04:21:35;;;;;;;7.00;6.30;;;22.90;99.90;;;;;;5026886;28;20481;-63
2023/08/21 04:24:02;;;;;;;8.30;6.80;;;22.90;99.90;;;;;;5020691;28;20959;-61
2023/08/21 04:26:29;;;;;;;9.80;7.93;;;22.90;99.90;;;;;;5020844;28;20531;-62
2023/08/21 04:28:56;;;;;;;10.27;6.73;;;22.90;99.90;;;;;;5018819;28;20957;-62
2023/08/21 04:31:23;;;;;;;9.17;7.40;;;22.90;99.90;;;;;;5024349;28;20889;-62
2023/08/21 04:33:51;;;;;;;9.43;8.43;;;22.90;99.90;;;;;;5021730;28;20842;-63
2023/08/21 04:36:18;;;;;;;9.00;6.50;;;22.90;99.90;;;;;;5023097;28;20516;-62
2023/08/21 04:38:45;;;;;;;11.30;7.47;;;22.90;99.90;;;;;;5026726;28;20456;-62
2023/08/21 04:41:12;;;;;;;11.47;8.13;;;22.90;99.90;;;;;;5026219;28;20476;-62
2023/08/21 04:43:39;;;;;;;8.70;7.80;;;22.90;99.90;;;;;;5026929;28;20452;-61
2023/08/21 04:46:06;;;;;;;11.87;8.63;;;22.90;99.90;;;;;;5030156;28;20509;-63
2023/08/21 04:48:33;;;;;;;9.57;8.57;;;22.90;99.90;;;;;;5030998;28;20457;-63
2023/08/21 04:51:01;;;;;;;9.73;8.60;;;22.90;99.90;;;;;;5026671;28;20522;-61
2023/08/21 04:53:29;;;;;;;11.80;8.00;;;22.90;99.90;;;;;;5025898;28;20522;-61
2023/08/21 04:55:55;;;;;;;9.93;7.80;;;23.00;99.90;;;;;;5029063;28;20496;-61
2023/08/21 04:58:22;;;;;;;9.30;7.77;;;22.90;99.90;;;;;;5035080;28;20441;-62
2023/08/21 05:00:49;;;;;;;10.40;7.00;;;22.90;99.90;;;;;;5034815;28;20472;-61
2023/08/21 05:03:16;;;;;;;13.30;7.40;;;23.00;99.90;;;;;;5035129;28;20449;-59
2023/08/21 05:05:43;;;;;;;9.80;8.03;;;23.00;99.90;;;;;;5024420;28;20567;-62
2023/08/21 05:08:11;;;;;;;10.87;8.73;;;23.00;99.90;;;;;;5016189;28;20532;-63
2023/08/21 05:10:38;;;;;;;10.10;9.03;;;23.00;99.90;;;;;;5022767;28;20503;-60
2023/08/21 05:13:05;;;;;;;14.13;8.20;;;23.00;99.90;;;;;;5026182;28;20940;-62
2023/08/21 05:15:32;;;;;;;8.83;7.73;;;23.00;99.90;;;;;;5024577;28;20508;-61
2023/08/21 05:17:59;;;;;;;9.23;7.63;;;23.00;99.90;;;;;;5024946;28;20476;-62
2023/08/21 05:20:26;;;;;;;11.30;8.20;;;23.10;99.90;;;;;;5025469;28;21016;-61
2023/08/21 05:22:53;;;;;;;9.50;8.30;;;23.10;99.90;;;;;;5017358;28;20477;-62
2023/08/21 05:25:21;;;;;;;10.13;8.30;;;23.10;99.90;;;;;;5022786;28;20485;-62
2023/08/21 05:27:48;;;;;;;9.00;8.10;;;23.10;99.90;;;;;;5017860;28;20766;-61
2023/08/21 05:30:15;;;;;;;8.60;7.20;;;23.10;99.90;;;;;;5022841;28;20489;-60
2023/08/21 05:32:42;;;;;;;9.10;7.17;;;23.10;99.90;;;;;;5025866;28;20437;-63
2023/08/21 05:35:09;;;;;;;8.33;7.33;;;23.10;99.90;;;;;;5025409;28;20477;-64
2023/08/21 05:37:36;;;;;;;10.00;8.73;;;23.10;99.90;;;;;;5025092;28;20426;-63
2023/08/21 05:40:04;;;;;;;12.27;8.90;;;23.10;99.90;;;;;;5025443;28;20441;-63
2023/08/21 05:42:32;;;;;;;11.40;7.90;;;23.10;99.90;;;;;;5016816;28;20429;-60
2023/08/21 05:44:59;;;;;;;11.90;7.97;;;23.20;99.90;;;;;;5020804;28;20484;-63
2023/08/21 05:47:26;;;;;;;10.13;9.10;;;23.20;99.90;;;;;;5032938;28;20491;-62
2023/08/21 05:49:54;;;;;;;9.90;7.53;;;23.30;99.90;;;;;;5034472;28;20509;-62
2023/08/21 05:52:21;;;;;;;8.30;7.50;;;23.30;99.90;;;;;;5034357;28;20445;-60
2023/08/21 05:54:48;;;;;;;9.50;7.40;;;23.40;99.90;;;;;;5034495;28;20476;-62
2023/08/21 05:57:15;;;;;;;9.90;7.77;;;23.50;99.90;;;;;;5035008;28;20445;-62
2023/08/21 05:59:47;;;;;;;11.13;9.10;;;23.50;99.90;;;;;;5034225;28;20470;-62
2023/08/21 06:02:14;;;;;;;14.10;9.60;;;23.60;99.90;;;;;;5034877;28;20446;-62
2023/08/21 06:04:41;;;;;;;9.33;8.20;;;23.60;99.90;;;;;;5034468;28;20977;-60
2023/08/21 06:07:09;;;;;;;11.80;8.17;;;23.60;99.90;;;;;;5033931;28;20484;-61
2023/08/21 06:09:36;;;;;;;22.40;8.53;;;23.60;99.90;;;;;;5033837;28;20540;-61
2023/08/21 06:12:03;;;;;;;12.77;8.03;;;23.80;99.90;;;;;;5034059;28;20450;-62
2023/08/21 06:14:30;;;;;;;13.60;7.83;;;23.80;99.90;;;;;;5033787;28;20445;-62
2023/08/21 06:17:00;;;;;;;17.33;7.60;;;23.90;99.90;;;;;;5030441;28;20469;-62
2023/08/21 06:19:27;;;;;;;13.57;8.37;;;24.00;99.90;;;;;;5024220;28;20471;-61
2023/08/21 06:21:55;;;;;;;14.87;7.90;;;24.00;99.90;;;;;;5024323;28;20461;-61
2023/08/21 06:24:22;;;;;;;8.63;7.50;;;24.10;99.90;;;;;;5024842;28;20445;-61
2023/08/21 06:26:48;;;;;;;10.67;7.10;;;24.20;99.90;;;;;;5024794;28;20512;-61
2023/08/21 06:29:15;;;;;;;8.70;7.00;;;24.30;99.90;;;;;;5028826;28;20488;-64
2023/08/21 06:31:43;;;;;;;11.23;7.50;;;24.40;99.90;;;;;;5029095;28;20524;-63
2023/08/21 06:34:12;;;;;;;11.63;7.17;;;24.50;99.90;;;;;;5028271;28;20496;-61
2023/08/21 06:36:39;;;;;;;9.70;7.40;;;24.50;99.90;;;;;;5028225;28;20520;-64
2023/08/21 06:39:06;;;;;;;8.60;7.23;;;24.60;99.90;;;;;;5028599;28;20477;-63
2023/08/21 06:41:33;;;;;;;8.33;7.53;;;24.70;99.90;;;;;;5037157;28;20484;-61
2023/08/21 06:44:02;;;;;;;11.07;8.40;;;24.70;99.90;;;;;;5037254;28;20505;-61
2023/08/21 06:46:29;;;;;;;7.97;7.17;;;24.80;99.90;;;;;;5037186;28;20554;-61
2023/08/21 06:48:56;;;;;;;15.37;8.47;;;25.00;99.90;;;;;;5030978;28;20437;-64
2023/08/21 06:51:24;;;;;;;9.03;8.13;;;25.10;99.90;;;;;;5028127;28;20468;-64
2023/08/21 06:53:51;;;;;;;9.20;6.30;;;25.20;99.90;;;;;;5028171;28;20460;-62
2023/08/21 06:56:18;;;;;;;12.40;7.40;;;25.30;99.90;;;;;;5027958;28;20464;-62
2023/08/21 06:58:44;;;;;;;7.80;6.53;;;25.30;99.90;;;;;;5028176;28;20440;-63
2023/08/21 07:01:11;;;;;;;9.47;6.27;;;25.30;99.90;;;;;;5028131;28;20476;-61
2023/08/21 07:03:38;;;;;;;7.20;5.87;;;25.40;99.90;;;;;;5028182;28;20425;-63
2023/08/21 07:06:05;;;;;;;7.30;6.53;;;25.40;99.90;;;;;;5027939;28;20448;-63
2023/08/21 07:08:33;;;;;;;7.43;5.80;;;25.40;99.90;;;;;;5028409;28;20445;-62
2023/08/21 07:11:03;;;;;;;7.40;6.00;;;25.40;99.90;;;;;;5027674;28;20571;-60
2023/08/21 07:13:30;;;;;;;9.63;6.23;;;25.50;99.90;;;;;;5027676;28;20455;-63
2023/08/21 07:16:02;;;;;;;6.23;5.63;;;25.40;99.90;;;;;;5027714;28;20444;-62
2023/08/21 07:18:29;;;;;;;7.33;6.63;;;25.50;99.90;;;;;;5027951;28;20429;-63
2023/08/21 07:20:56;;;;;;;7.67;6.90;;;25.60;99.90;;;;;;5027044;28;20477;-63
2023/08/21 07:23:23;;;;;;;8.37;6.90;;;25.70;99.90;;;;;;5027136;28;20491;-62
2023/08/21 07:25:51;;;;;;;6.50;5.90;;;25.80;99.90;;;;;;5030727;28;20461;-61
2023/08/21 07:28:18;;;;;;;7.37;6.40;;;25.90;99.90;;;;;;5022681;28;20484;-62
2023/08/21 07:30:45;;;;;;;9.17;6.80;;;25.90;99.90;;;;;;5028186;28;20449;-63
2023/08/21 07:33:12;;;;;;;7.33;5.80;;;25.90;99.90;;;;;;5035716;28;20499;-62
2023/08/21 07:35:39;;;;;;;7.97;7.07;;;25.90;99.90;;;;;;5035877;28;20459;-62
2023/08/21 07:38:06;;;;;;;7.33;5.60;;;26.00;99.90;;;;;;5035106;28;20493;-63
2023/08/21 07:40:32;;;;;;;8.67;5.83;;;26.10;99.90;;;;;;5021776;28;20487;-64
2023/08/21 07:43:01;;;;;;;5.50;5.00;;;26.30;99.90;;;;;;5021226;28;20521;-62
2023/08/21 07:45:29;;;;;;;5.60;5.07;;;26.50;99.90;;;;;;5027046;28;20484;-64
2023/08/21 07:47:56;;;;;;;5.13;4.57;;;26.60;99.90;;;;;;5021286;28;20524;-60
2023/08/21 07:50:23;;;;;;;7.27;6.57;;;26.70;99.90;;;;;;5020315;28;20472;-63
2023/08/21 07:52:50;;;;;;;4.87;4.47;;;26.80;99.90;;;;;;5025652;28;20504;-62
2023/08/21 07:55:19;;;;;;;11.20;5.13;;;26.80;99.90;;;;;;5025859;28;20533;-63
2023/08/21 07:57:46;;;;;;;4.63;3.93;;;27.00;99.90;;;;;;5033301;28;20465;-63
2023/08/21 08:00:15;;;;;;;6.07;4.33;;;27.20;99.90;;;;;;5033330;28;20448;-62
2023/08/21 08:02:43;;;;;;;5.37;3.80;;;27.40;99.90;;;;;;5017133;28;20851;-61
2023/08/21 08:05:10;;;;;;;5.70;3.87;;;28.30;99.90;;;;;;5019302;28;20476;-62
2023/08/21 08:07:37;;;;;;;3.73;3.37;;;29.30;99.90;;;;;;5030376;28;20561;-60
2023/08/21 08:10:04;;;;;;;5.00;3.63;;;29.60;99.90;;;;;;5029314;28;20452;-58
2023/08/21 08:12:33;;;;;;;3.97;3.57;;;29.40;99.90;;;;;;5022444;28;20489;-59
2023/08/21 08:14:59;;;;;;;3.63;3.33;;;29.50;99.90;;;;;;5022861;28;20480;-63
2023/08/21 08:17:28;;;;;;;6.63;3.90;;;29.60;99.90;;;;;;5016734;28;20437;-62
2023/08/21 08:19:55;;;;;;;5.53;3.00;;;29.70;99.90;;;;;;5017630;28;20464;-63
2023/08/21 08:22:21;;;;;;;11.03;4.10;;;29.60;99.90;;;;;;5017268;28;20536;-63
2023/08/21 08:24:48;;;;;;;5.30;4.10;;;29.50;99.90;;;;;;5017105;28;20425;-62
2023/08/21 08:27:15;;;;;;;7.30;3.33;;;29.20;99.90;;;;;;5028183;28;20520;-62
2023/08/21 08:29:42;;;;;;;6.00;2.83;;;28.90;99.90;;;;;;5030823;28;20544;-62
2023/08/21 08:32:09;;;;;;;4.17;2.57;;;28.80;99.90;;;;;;5018773;28;20473;-62
2023/08/21 08:34:37;;;;;;;4.60;2.90;;;28.60;99.90;;;;;;5020273;28;20535;-60
2023/08/21 08:37:04;;;;;;;4.17;3.77;;;28.60;99.90;;;;;;5022619;28;20460;-62
2023/08/21 08:39:31;;;;;;;4.93;4.27;;;29.20;99.90;;;;;;5023821;28;20504;-62
2023/08/21 08:42:03;;;;;;;4.27;3.33;;;29.80;99.90;;;;;;5017440;28;20449;-63
2023/08/21 08:44:31;;;;;;;4.40;3.30;;;29.80;99.90;;;;;;5017431;28;20452;-61
2023/08/21 08:46:58;;;;;;;4.83;3.47;;;30.10;99.90;;;;;;5023689;28;20583;-62
2023/08/21 08:49:25;;;;;;;4.70;2.90;;;31.00;97.50;;;;;;5022223;28;20537;-62
2023/08/21 08:51:58;;;;;;;4.50;3.50;;;32.20;94.30;;;;;;5022517;28;20460;-62
2023/08/21 08:54:26;;;;;;;4.30;3.90;;;32.60;90.60;;;;;;5021518;28;20523;-62
2023/08/21 08:56:55;;;;;;;3.33;3.03;;;32.30;89.80;;;;;;5021686;28;20519;-62
2023/08/21 08:59:22;;;;;;;4.30;3.43;;;31.70;88.90;;;;;;5026624;28;20500;-61
2023/08/21 09:01:50;;;;;;;3.43;2.20;;;31.20;87.50;;;;;;5027149;28;20780;-61
2023/08/21 09:04:16;;;;;;;7.07;2.33;;;30.70;83.90;;;;;;5021361;28;20516;-62
2023/08/21 09:06:43;;;;;;;5.90;2.80;;;30.70;83.20;;;;;;5021740;28;20499;-63
2023/08/21 09:09:13;;;;;;;2.43;2.20;;;30.90;84.90;;;;;;5022150;28;20500;-63
2023/08/21 09:11:44;;;;;;;2.00;1.57;;;31.70;74.70;;;;;;5022846;28;20449;-62
2023/08/21 09:14:11;;;;;;;2.90;1.47;;;32.40;71.90;;;;;;5022647;28;20479;-61
2023/08/21 09:16:38;;;;;;;3.80;1.93;;;33.20;66.60;;;;;;5019437;28;20532;-62
2023/08/21 09:19:05;;;;;;;2.10;1.73;;;34.00;64.20;;;;;;5020383;28;20465;-61
2023/08/21 09:21:35;;;;;;;5.57;1.70;;;34.80;62.00;;;;;;5021625;28;20465;-62
2023/08/21 09:24:03;;;;;;;4.20;1.63;;;35.40;58.80;;;;;;5021307;28;20472;-62
2023/08/21 09:26:33;;;;;;;1.73;1.30;;;36.10;54.80;;;;;;5017716;28;20532;-62
2023/08/21 09:29:02;;;;;;;11.60;8.57;;;36.40;50.90;;;;;;5016770;28;21017;-60
2023/08/21 09:31:32;;;;;;;2.43;1.57;;;36.70;49.50;;;;;;5019379;28;20449;-63
2023/08/21 09:34:00;;;;;;;2.60;1.40;;;36.30;49.60;;;;;;5020341;28;20504;-62
2023/08/21 09:36:27;;;;;;;2.50;1.70;;;35.50;50.60;;;;;;5021009;28;20453;-62
2023/08/21 09:38:55;;;;;;;3.00;1.53;;;35.10;51.90;;;;;;5020472;28;20469;-61
2023/08/21 09:41:22;;;;;;;4.60;1.63;;;35.00;52.80;;;;;;5015946;28;20560;-62
2023/08/21 09:43:51;;;;;;;2.03;1.30;;;34.80;51.90;;;;;;5015849;28;20472;-62
2023/08/21 09:46:24;;;;;;;2.37;1.47;;;35.00;52.90;;;;;;5020264;28;20518;-61
2023/08/21 09:48:54;;;;;;;7.83;1.43;;;35.40;52.20;;;;;;5019832;28;20468;-62
2023/08/21 09:51:22;;;;;;;2.57;1.63;;;35.90;51.80;;;;;;5015902;28;20434;-61
2023/08/21 09:53:51;;;;;;;1.83;1.30;;;36.30;50.40;;;;;;5019628;28;20535;-61
2023/08/21 09:56:19;;;;;;;3.17;1.73;;;36.60;50.00;;;;;;5023004;28;20504;-59
2023/08/21 09:58:49;;;;;;;3.37;1.73;;;36.90;49.90;;;;;;5020034;28;20441;-62
2023/08/21 10:01:18;;;;;;;2.00;1.77;;;37.20;49.30;;;;;;5021188;28;20472;-62
2023/08/21 10:03:47;;;;;;;3.00;1.60;;;37.00;47.60;;;;;;5019181;28;20519;-62
2023/08/21 10:06:17;;;;;;;1.73;1.63;;;36.40;48.40;;;;;;5019921;28;20532;-62
2023/08/21 10:08:49;;;;;;;2.10;1.70;;;36.00;49.10;;;;;;5019604;28;20533;-61
2023/08/21 10:11:19;;;;;;;4.33;2.13;;;35.90;49.70;;;;;;5022507;28;20467;-63
2023/08/21 10:13:47;;;;;;;1.93;1.37;;;36.30;49.20;;;;;;5027163;28;20455;-62
2023/08/21 10:16:15;;;;;;;2.13;1.47;;;36.60;47.90;;;;;;5021414;28;20511;-63
2023/08/21 10:18:45;;;;;;;2.70;1.57;;;36.70;48.30;;;;;;5020843;28;20441;-62
2023/08/21 10:21:14;;;;;;;2.37;1.47;;;36.70;47.70;;;;;;5020247;28;20507;-63
2023/08/21 10:23:42;;;;;;;2.13;1.63;;;36.50;48.30;;;;;;5019637;28;20468;-62
2023/08/21 10:26:11;;;;;;;1.87;1.60;;;36.20;49.00;;;;;;5025258;28;20473;-61
2023/08/21 10:28:53;;;;;;;1.90;1.70;;;35.90;49.40;;;;;;5026369;28;20480;-62
2023/08/21 10:31:33;;;;;;;2.37;1.50;;;35.40;50.50;;;;;;5013225;28;20542;-61
2023/08/21 10:34:02;;;;;;;2.90;1.70;;;34.60;52.10;;;;;;5016293;28;20452;-62
2023/08/21 10:37:12;;;;;;;4.43;1.83;;;34.40;53.10;;;;;;5025002;28;20457;-62
2023/08/21 10:39:55;;;;;;;2.83;1.50;;;34.60;52.80;;;;;;5022924;28;20468;-62
2023/08/21 10:42:39;;;;;;;3.03;1.90;;;34.60;53.00;;;;;;5017675;28;20468;-62
2023/08/21 10:45:11;;;;;;;5.20;2.00;;;34.70;51.90;;;;;;5017298;28;20471;-63
2023/08/21 10:47:40;;;;;;;4.30;3.10;;;34.30;51.70;;;;;;5019835;28;20469;-63
2023/08/21 10:50:09;;;;;;;3.50;2.00;;;34.10;53.00;;;;;;5019821;28;20527;-61
2023/08/21 10:52:37;;;;;;;5.33;2.97;;;34.10;53.10;;;;;;5019781;28;20504;-64
2023/08/21 10:55:05;;;;;;;10.83;3.53;;;34.10;52.90;;;;;;5019352;28;20544;-62
2023/08/21 10:57:33;;;;;;;2.77;2.30;;;34.00;53.30;;;;;;5014968;28;20875;-62
2023/08/21 11:00:03;;;;;;;5.00;4.03;;;34.00;53.20;;;;;;5015322;28;20574;-64
2023/08/21 11:02:31;;;;;;;11.43;3.77;;;33.90;53.20;;;;;;5019879;28;20744;-64
2023/08/21 11:05:02;;;;;;;2.43;1.33;;;33.70;53.60;;;;;;5020240;28;20460;-63
2023/08/21 11:07:37;;;;;;;3.57;1.40;;;33.60;53.70;;;;;;5019546;28;20443;-63
2023/08/21 11:10:05;;;;;;;2.13;1.30;;;33.40;53.50;;;;;;5020091;28;20489;-64
2023/08/21 11:12:32;;;;;;;2.60;1.20;;;33.00;53.20;;;;;;5024230;28;20528;-62
2023/08/21 11:14:59;;;;;;;3.03;1.70;;;32.60;53.40;;;;;;5028941;28;20452;-62
2023/08/21 11:17:26;;;;;;;2.47;1.67;;;32.20;54.90;;;;;;5030009;28;20425;-62
2023/08/21 11:19:53;;;;;;;2.50;1.40;;;31.80;55.60;;;;;;5025397;28;20452;-63
2023/08/21 11:22:21;;;;;;;1.93;1.27;;;31.40;57.40;;;;;;5023045;28;20477;-64
2023/08/21 11:24:50;;;;;;;2.80;1.73;;;31.10;57.00;;;;;;5018685;28;20441;-63
2023/08/21 11:27:19;;;;;;;2.00;1.57;;;30.70;57.70;;;;;;5020488;28;20479;-62
2023/08/21 11:29:47;;;;;;;2.20;1.93;;;30.40;58.20;;;;;;5021039;28;20562;-62
2023/08/21 11:32:15;;;;;;;1.80;1.70;;;30.20;59.20;;;;;;5018370;28;20456;-63
2023/08/21 11:34:44;;;;;;;1.80;1.70;;;30.10;59.50;;;;;;5017973;28;20462;-59
2023/08/21 11:37:11;;;;;;;2.23;1.70;;;29.90;60.30;;;;;;5022842;28;20528;-63
2023/08/21 11:39:46;;;;;;;2.20;1.70;;;29.80;61.20;;;;;;5023278;28;20469;-62
2023/08/21 11:42:14;;;;;;;2.87;1.60;;;29.80;61.80;;;;;;5022892;28;20457;-60
2023/08/21 11:44:42;;;;;;;2.23;1.23;;;30.00;62.20;;;;;;5017978;28;20807;-61
2023/08/21 11:47:09;;;;;;;2.43;1.63;;;30.20;61.90;;;;;;5022986;28;20531;-61
2023/08/21 11:49:38;;;;;;;2.50;1.67;;;30.40;61.70;;;;;;5032350;28;21030;-62
2023/08/21 11:52:05;;;;;;;2.13;1.37;;;30.50;60.30;;;;;;5031962;28;20502;-59
2023/08/21 11:54:36;;;;;;;3.60;1.63;;;30.40;58.60;;;;;;5023345;28;20441;-61
2023/08/21 11:57:09;;;;;;;2.80;1.40;;;30.30;58.00;;;;;;5017246;28;20511;-61
2023/08/21 11:59:38;;;;;;;3.70;1.47;;;30.30;57.90;;;;;;5022139;28;20460;-60
2023/08/21 12:02:15;;;;;;;4.87;2.53;;;30.30;57.60;;;;;;5023445;28;20501;-61
2023/08/21 12:04:42;;;;;;;2.77;2.00;;;30.20;57.80;;;;;;5023475;28;20436;-61
2023/08/21 12:07:09;;;;;;;4.03;2.17;;;30.30;58.30;;;;;;5023241;28;20564;-61
2023/08/21 12:09:36;;;;;;;1.93;1.20;;;30.30;58.90;;;;;;5023008;28;20524;-63
2023/08/21 12:12:03;;;;;;;2.10;1.70;;;30.10;58.80;;;;;;5022317;28;20500;-62
2023/08/21 12:14:32;;;;;;;4.43;1.70;;;29.90;59.80;;;;;;5022088;28;20468;-62
2023/08/21 12:16:58;;;;;;;3.83;1.47;;;29.80;60.60;;;;;;5022351;28;20475;-63
2023/08/21 12:19:25;;;;;;;3.43;2.07;;;29.70;58.50;;;;;;5022522;28;20441;-62
2023/08/21 12:21:52;;;;;;;3.53;1.30;;;29.50;59.10;;;;;;5022264;28;20509;-62
2023/08/21 12:24:19;;;;;;;2.40;1.17;;;29.20;57.90;;;;;;5022955;28;20441;-62
2023/08/21 12:26:46;;;;;;;3.67;1.90;;;29.10;59.10;;;;;;5022444;28;20489;-62
2023/08/21 12:29:13;;;;;;;2.20;1.27;;;29.10;59.90;;;;;;5022803;28;20480;-62
2023/08/21 12:31:41;;;;;;;2.27;1.30;;;29.10;60.60;;;;;;5022758;28;20560;-61
2023/08/21 12:34:08;;;;;;;2.70;1.10;;;29.20;61.20;;;;;;5023375;28;20464;-65
2023/08/21 12:36:36;;;;;;;3.10;1.60;;;29.10;62.60;;;;;;5022203;28;20508;-62
2023/08/21 12:39:05;;;;;;;2.30;1.70;;;29.20;62.40;;;;;;5022376;28;20421;-63
2023/08/21 12:41:32;;;;;;;3.30;1.60;;;29.40;63.10;;;;;;5028009;28;20495;-63
2023/08/21 12:43:59;;;;;;;2.27;2.07;;;29.50;63.70;;;;;;5024404;28;20521;-63
2023/08/21 12:46:27;;;;;;;8.43;2.10;;;29.70;62.70;;;;;;5023148;28;20520;-62